createdAt,value
2018-04-07T00:01:44.975Z,1.57
2018-04-07T00:04:14.502Z,2.10
2018-04-07T00:06:43.373Z,1.80
2018-04-07T00:09:12.189Z,1.73
2018-04-07T00:11:40.990Z,1.83
2018-04-07T00:14:09.798Z,1.77
2018-04-07T00:16:38.615Z,1.77
2018-04-07T00:19:07.421Z,1.90
2018-04-07T00:21:36.211Z,1.60
2018-04-07T00:24:05.002Z,1.50
2018-04-07T00:26:33.813Z,1.60
2018-04-07T00:29:02.603Z,1.50
2018-04-07T00:31:31.421Z,1.60
2018-04-07T00:34:00.222Z,1.83
2018-04-07T00:36:29.032Z,1.90
2018-04-07T00:38:57.838Z,2.00
2018-04-07T00:41:26.627Z,1.70
2018-04-07T00:43:55.426Z,1.57
2018-04-07T00:46:24.277Z,1.40
2018-04-07T00:48:53.166Z,1.70
2018-04-07T00:51:21.950Z,1.80
2018-04-07T00:53:50.758Z,1.80
2018-04-07T00:56:19.547Z,1.73
2018-04-07T00:58:48.343Z,1.70
2018-04-07T01:01:17.140Z,1.60
2018-04-07T01:03:45.931Z,1.80
2018-04-07T01:06:14.725Z,2.10
2018-04-07T01:08:43.528Z,1.67
2018-04-07T01:11:12.414Z,2.00
2018-04-07T01:13:41.220Z,2.20
2018-04-07T01:16:10.103Z,2.30
2018-04-07T01:18:38.911Z,2.10
2018-04-07T01:21:07.800Z,2.40
2018-04-07T01:23:36.606Z,2.40
2018-04-07T01:26:05.392Z,2.20
2018-04-07T01:28:34.202Z,2.33
2018-04-07T01:31:02.992Z,2.17
2018-04-07T01:33:31.865Z,2.17
2018-04-07T01:36:00.650Z,2.20
2018-04-07T01:38:29.458Z,2.50
2018-04-07T01:40:58.246Z,2.23
2018-04-07T01:43:27.033Z,2.40
2018-04-07T01:45:55.839Z,2.30
2018-04-07T01:48:24.725Z,2.40
2018-04-07T01:50:53.513Z,2.33
2018-04-07T01:53:22.309Z,2.40
2018-04-07T01:55:51.127Z,1.83
2018-04-07T01:58:19.998Z,2.43
2018-04-07T02:00:49.099Z,2.33
2018-04-07T02:03:17.888Z,2.10
2018-04-07T02:05:46.708Z,1.90
2018-04-07T02:08:15.518Z,1.80
2018-04-07T02:10:44.381Z,2.23
2018-04-07T02:13:13.691Z,2.20
2018-04-07T02:15:42.501Z,2.20
2018-04-07T02:18:11.307Z,2.10
2018-04-07T02:20:40.096Z,2.33
2018-04-07T02:23:08.899Z,2.20
2018-04-07T02:25:37.750Z,1.83
2018-04-07T02:28:06.646Z,2.17
2018-04-07T02:30:35.438Z,2.27
2018-04-07T02:33:04.336Z,2.03
2018-04-07T02:35:33.226Z,2.10
2018-04-07T02:38:02.032Z,2.13
2018-04-07T02:40:30.845Z,2.47
2018-04-07T02:42:59.649Z,2.40
2018-04-07T02:45:28.459Z,2.30
2018-04-07T02:47:57.310Z,2.10
2018-04-07T02:50:26.167Z,2.20
2018-04-07T02:52:54.920Z,2.33
2018-04-07T02:55:23.705Z,2.00
2018-04-07T02:57:52.597Z,2.37
2018-04-07T03:00:21.373Z,2.17
2018-04-07T03:02:50.381Z,2.00
2018-04-07T03:05:19.267Z,2.33
2018-04-07T03:07:48.087Z,2.33
2018-04-07T03:10:16.954Z,2.17
2018-04-07T03:12:45.746Z,2.00
2018-04-07T03:15:14.538Z,2.10
2018-04-07T03:17:43.353Z,2.10
2018-04-07T03:20:12.162Z,1.93
2018-04-07T03:22:40.969Z,1.93
2018-04-07T03:25:09.750Z,2.30
2018-04-07T03:27:38.619Z,2.10
2018-04-07T03:30:07.511Z,2.07
2018-04-07T03:32:36.322Z,1.80
2018-04-07T03:35:05.116Z,2.03
2018-04-07T03:37:33.918Z,1.97
2018-04-07T03:40:03.317Z,1.93
2018-04-07T03:42:32.123Z,1.90
2018-04-07T03:45:00.905Z,2.10
2018-04-07T03:47:29.726Z,2.10
2018-04-07T03:49:58.505Z,2.13
2018-04-07T03:52:27.322Z,1.70
2018-04-07T03:54:56.167Z,1.97
2018-04-07T03:57:24.971Z,2.20
2018-04-07T03:59:53.856Z,2.03
2018-04-07T04:02:22.673Z,2.07
2018-04-07T04:04:51.506Z,2.10
2018-04-07T04:07:20.302Z,1.73
2018-04-07T04:09:49.159Z,1.97
2018-04-07T04:12:17.973Z,1.70
2018-04-07T04:14:46.823Z,2.23
2018-04-07T04:17:15.626Z,1.90
2018-04-07T04:19:44.442Z,1.97
2018-04-07T04:22:13.221Z,2.27
2018-04-07T04:24:42.010Z,1.93
2018-04-07T04:27:10.894Z,1.83
2018-04-07T04:29:39.685Z,2.13
2018-04-07T04:32:08.481Z,1.93
2018-04-07T04:34:37.268Z,2.00
2018-04-07T04:37:06.064Z,1.90
2018-04-07T04:39:34.853Z,2.17
2018-04-07T04:42:03.662Z,2.23
2018-04-07T04:44:32.469Z,2.00
2018-04-07T04:47:01.345Z,2.03
2018-04-07T04:49:30.143Z,1.67
2018-04-07T04:51:58.942Z,1.80
2018-04-07T04:54:27.764Z,1.70
2018-04-07T04:56:56.585Z,1.50
2018-04-07T04:59:25.371Z,1.63
2018-04-07T05:01:54.178Z,1.93
2018-04-07T05:04:22.998Z,1.77
2018-04-07T05:06:51.779Z,1.73
2018-04-07T05:09:20.582Z,1.30
2018-04-07T05:11:49.390Z,1.73
2018-04-07T05:14:18.195Z,1.67
2018-04-07T05:16:47.012Z,1.40
2018-04-07T05:19:15.863Z,1.50
2018-04-07T05:21:44.762Z,1.27
2018-04-07T05:24:13.786Z,1.30
2018-04-07T05:26:42.612Z,2.10
2018-04-07T05:29:11.462Z,1.70
2018-04-07T05:31:40.333Z,1.90
2018-04-07T05:34:09.158Z,1.87
2018-04-07T05:36:37.973Z,2.10
2018-04-07T05:39:06.758Z,2.20
2018-04-07T05:41:35.561Z,2.10
2018-04-07T05:44:04.348Z,2.23
2018-04-07T05:46:33.159Z,2.00
2018-04-07T05:49:02.006Z,2.17
2018-04-07T05:51:30.809Z,2.00
2018-04-07T05:53:59.598Z,2.10
2018-04-07T05:56:28.478Z,2.10
2018-04-07T05:58:57.266Z,2.10
2018-04-07T06:01:26.166Z,2.20
2018-04-07T06:03:54.978Z,2.50
2018-04-07T06:06:23.787Z,2.20
2018-04-07T06:08:52.654Z,2.90
2018-04-07T06:11:21.458Z,3.30
2018-04-07T06:13:50.247Z,2.80
2018-04-07T06:16:19.055Z,3.10
2018-04-07T06:18:47.863Z,3.33
2018-04-07T06:21:16.655Z,3.47
2018-04-07T06:23:45.473Z,3.33
2018-04-07T06:26:14.258Z,3.77
2018-04-07T06:28:43.102Z,3.80
2018-04-07T06:31:11.919Z,3.57
2018-04-07T06:33:40.795Z,3.40
2018-04-07T06:36:09.597Z,3.97
2018-04-07T06:38:38.410Z,5.43
2018-04-07T06:41:07.209Z,6.13
2018-04-07T06:43:36.063Z,5.33
2018-04-07T06:46:04.871Z,5.63
2018-04-07T06:48:33.752Z,4.77
2018-04-07T06:51:02.554Z,4.57
2018-04-07T06:53:31.450Z,4.87
2018-04-07T06:56:00.538Z,4.53
2018-04-07T06:58:29.350Z,3.73
2018-04-07T07:00:58.160Z,4.30
2018-04-07T07:03:26.970Z,4.60
2018-04-07T07:05:55.762Z,4.47
2018-04-07T07:08:24.618Z,4.03
2018-04-07T07:10:53.407Z,3.77
2018-04-07T07:13:22.302Z,4.43
2018-04-07T07:15:51.101Z,5.10
2018-04-07T07:18:19.932Z,4.17
2018-04-07T07:20:48.703Z,4.27
2018-04-07T07:23:17.495Z,3.97
2018-04-07T07:25:46.298Z,3.13
2018-04-07T07:28:15.090Z,3.33
2018-04-07T07:30:43.898Z,3.07
2018-04-07T07:33:12.690Z,3.17
2018-04-07T07:35:41.547Z,2.70
2018-04-07T07:38:10.353Z,2.63
2018-04-07T07:40:39.154Z,3.07
2018-04-07T07:43:07.961Z,2.73
2018-04-07T07:45:36.747Z,2.13
2018-04-07T07:48:05.550Z,2.40
2018-04-07T07:50:34.414Z,2.73
2018-04-07T07:53:03.211Z,2.93
2018-04-07T07:55:32.022Z,3.33
2018-04-07T07:58:00.807Z,4.03
2018-04-07T08:00:29.615Z,4.00
2018-04-07T08:02:58.488Z,3.77
2018-04-07T08:05:27.265Z,3.43
2018-04-07T08:07:56.086Z,3.23
2018-04-07T08:10:24.875Z,3.23
2018-04-07T08:12:53.683Z,3.30
2018-04-07T08:15:22.566Z,3.10
2018-04-07T08:17:51.458Z,3.00
2018-04-07T08:20:20.257Z,3.20
2018-04-07T08:22:49.054Z,3.03
2018-04-07T08:25:17.886Z,2.60
2018-04-07T08:27:46.696Z,3.00
2018-04-07T08:30:15.506Z,3.80
2018-04-07T08:32:44.304Z,3.13
2018-04-07T08:35:13.120Z,3.90
2018-04-07T08:37:41.906Z,3.90
2018-04-07T08:40:10.789Z,3.43
2018-04-07T08:42:39.589Z,2.83
2018-04-07T08:45:08.398Z,2.90
2018-04-07T08:47:37.218Z,2.87
2018-04-07T08:50:06.038Z,3.20
2018-04-07T08:52:34.844Z,2.80
2018-04-07T08:55:03.664Z,3.13
2018-04-07T08:57:32.558Z,2.97
2018-04-07T09:00:01.450Z,2.87
2018-04-07T09:02:30.272Z,2.73
2018-04-07T09:04:59.042Z,2.70
2018-04-07T09:07:27.844Z,2.20
2018-04-07T09:09:56.746Z,2.30
2018-04-07T09:12:25.573Z,2.60
2018-04-07T09:14:54.362Z,2.20
2018-04-07T09:17:23.211Z,2.23
2018-04-07T09:19:51.990Z,2.83
2018-04-07T09:22:20.784Z,2.23
2018-04-07T09:24:49.690Z,1.90
2018-04-07T09:27:18.496Z,1.80
2018-04-07T09:29:47.290Z,2.60
2018-04-07T09:32:16.096Z,2.10
2018-04-07T09:34:44.895Z,2.67
2018-04-07T09:37:13.688Z,2.43
2018-04-07T09:39:42.554Z,2.30
2018-04-07T09:42:11.359Z,2.40
2018-04-07T09:44:40.166Z,2.47
2018-04-07T09:47:08.961Z,2.10
2018-04-07T09:49:37.763Z,2.67
2018-04-07T09:52:06.622Z,2.50
2018-04-07T09:54:35.430Z,2.10
2018-04-07T09:57:04.240Z,2.10
2018-04-07T09:59:33.112Z,2.00
2018-04-07T10:02:01.922Z,2.37
2018-04-07T10:04:30.711Z,3.60
2018-04-07T10:06:59.542Z,6.37
2018-04-07T10:09:28.388Z,5.17
2018-04-07T10:11:57.190Z,3.63
2018-04-07T10:14:26.070Z,3.40
2018-04-07T10:16:54.871Z,3.63
2018-04-07T10:19:23.654Z,3.37
2018-04-07T10:21:52.462Z,3.70
2018-04-07T10:24:21.276Z,3.53
2018-04-07T10:26:50.145Z,2.70
2018-04-07T10:29:19.037Z,2.80
2018-04-07T10:31:47.852Z,2.50
2018-04-07T10:34:16.659Z,2.60
2018-04-07T10:36:45.459Z,2.60
2018-04-07T10:39:14.266Z,2.37
2018-04-07T10:41:43.045Z,2.60
2018-04-07T10:44:11.906Z,2.50
2018-04-07T10:46:40.746Z,2.07
2018-04-07T10:49:09.490Z,2.20
2018-04-07T10:51:38.386Z,2.53
2018-04-07T10:54:07.282Z,3.80
2018-04-07T10:56:36.062Z,3.80
2018-04-07T10:59:04.869Z,3.80
2018-04-07T11:01:33.762Z,3.80
2018-04-07T11:04:02.568Z,3.33
2018-04-07T11:06:31.351Z,3.57
2018-04-07T11:09:00.246Z,4.10
2018-04-07T11:11:29.047Z,3.37
2018-04-07T11:13:57.863Z,3.87
2018-04-07T11:16:26.650Z,3.47
2018-04-07T11:18:55.458Z,3.77
2018-04-07T11:21:24.242Z,3.43
2018-04-07T11:23:53.038Z,3.63
2018-04-07T11:26:21.839Z,3.17
2018-04-07T11:28:50.645Z,3.53
2018-04-07T11:31:19.430Z,3.43
2018-04-07T11:33:48.235Z,3.30
2018-04-07T11:36:17.083Z,3.83
2018-04-07T11:38:45.978Z,3.80
2018-04-07T11:41:14.970Z,3.13
2018-04-07T11:43:43.785Z,3.57
2018-04-07T11:46:12.578Z,2.93
2018-04-07T11:48:41.393Z,3.07
2018-04-07T11:51:10.254Z,2.73
2018-04-07T11:53:39.030Z,2.67
2018-04-07T11:56:07.835Z,3.00
2018-04-07T11:58:36.617Z,3.47
2018-04-07T12:01:05.423Z,2.60
2018-04-07T12:03:34.219Z,2.77
2018-04-07T12:06:03.038Z,2.90
2018-04-07T12:08:31.842Z,2.83
2018-04-07T12:11:00.634Z,2.97
2018-04-07T12:13:29.437Z,2.47
2018-04-07T12:15:58.300Z,2.83
2018-04-07T12:18:27.193Z,2.97
2018-04-07T12:20:55.998Z,3.03
2018-04-07T12:23:24.811Z,2.80
2018-04-07T12:25:53.601Z,2.93
2018-04-07T12:28:22.416Z,2.80
2018-04-07T12:30:51.260Z,2.60
2018-04-07T12:33:20.078Z,2.60
2018-04-07T12:35:48.882Z,3.10
2018-04-07T12:38:17.663Z,2.53
2018-04-07T12:40:46.507Z,2.10
2018-04-07T12:43:15.256Z,2.43
2018-04-07T12:45:44.122Z,2.83
2018-04-07T12:48:12.930Z,2.60
2018-04-07T12:50:41.719Z,3.70
2018-04-07T12:53:10.593Z,3.50
2018-04-07T12:55:39.409Z,4.53
2018-04-07T12:58:08.210Z,3.87
2018-04-07T13:00:37.006Z,3.27
2018-04-07T13:03:05.874Z,2.73
2018-04-07T13:05:34.669Z,3.40
2018-04-07T13:08:03.474Z,3.47
2018-04-07T13:10:32.359Z,2.90
2018-04-07T13:13:01.167Z,4.17
2018-04-07T13:15:29.962Z,2.60
2018-04-07T13:17:58.775Z,2.23
2018-04-07T13:20:27.638Z,2.33
2018-04-07T13:22:56.425Z,2.53
2018-04-07T13:25:25.237Z,2.80
2018-04-07T13:27:54.117Z,3.17
2018-04-07T13:30:22.930Z,3.00
2018-04-07T13:32:51.758Z,3.53
2018-04-07T13:35:20.544Z,3.60
2018-04-07T13:37:49.397Z,3.50
2018-04-07T13:40:18.185Z,2.80
2018-04-07T13:42:46.992Z,3.37
2018-04-07T13:45:15.875Z,3.60
2018-04-07T13:47:44.678Z,3.00
2018-04-07T13:50:13.562Z,3.00
2018-04-07T13:52:42.366Z,3.27
2018-04-07T13:55:11.161Z,2.50
2018-04-07T13:57:39.963Z,2.70
2018-04-07T14:00:08.762Z,2.93
2018-04-07T14:02:37.562Z,2.60
2018-04-07T14:05:06.367Z,2.40
2018-04-07T14:07:35.170Z,2.33
2018-04-07T14:10:03.958Z,2.20
2018-04-07T14:12:32.758Z,2.27
2018-04-07T14:15:01.542Z,3.03
2018-04-07T14:17:30.350Z,2.87
2018-04-07T14:19:59.137Z,2.97
2018-04-07T14:22:28.794Z,2.37
2018-04-07T14:24:57.580Z,2.60
2018-04-07T14:27:26.495Z,3.00
2018-04-07T14:29:55.386Z,2.43
2018-04-07T14:32:24.287Z,2.60
2018-04-07T14:34:53.096Z,2.33
2018-04-07T14:37:21.982Z,2.47
2018-04-07T14:39:50.780Z,2.60
2018-04-07T14:42:19.662Z,2.30
2018-04-07T14:45:01.579Z,2.90
2018-04-07T14:47:30.858Z,2.23
2018-04-07T14:49:59.761Z,2.50
2018-04-07T14:52:28.645Z,2.40
2018-04-07T14:54:57.598Z,2.50
2018-04-07T14:57:26.436Z,2.30
2018-04-07T14:59:55.268Z,2.40
2018-04-07T15:02:24.147Z,2.20
2018-04-07T15:04:53.162Z,2.20
2018-04-07T15:07:22.090Z,2.33
2018-04-07T15:09:51.026Z,2.60
2018-04-07T15:12:20.096Z,2.70
2018-04-07T15:14:48.957Z,2.70
2018-04-07T15:17:18.209Z,3.27
2018-04-07T15:19:47.227Z,3.07
2018-04-07T15:22:16.349Z,2.63
2018-04-07T15:24:45.560Z,2.80
2018-04-07T15:27:14.511Z,2.90
2018-04-07T15:29:43.440Z,2.93
2018-04-07T15:32:12.304Z,3.20
2018-04-07T15:34:41.214Z,3.00
2018-04-07T15:37:10.078Z,2.73
2018-04-07T15:39:39.003Z,2.83
2018-04-07T15:42:07.884Z,3.93
2018-04-07T15:44:36.916Z,3.90
2018-04-07T15:47:05.891Z,5.13
2018-04-07T15:49:34.893Z,5.97
2018-04-07T15:52:03.890Z,5.50
2018-04-07T15:54:32.797Z,5.57
2018-04-07T15:57:01.859Z,5.57
2018-04-07T15:59:30.752Z,4.67
2018-04-07T16:01:59.742Z,4.90
2018-04-07T16:04:28.783Z,4.70
2018-04-07T16:06:57.679Z,4.67
2018-04-07T16:09:26.570Z,4.90
2018-04-07T16:11:55.529Z,4.27
2018-04-07T16:14:24.575Z,4.50
2018-04-07T16:16:53.478Z,4.87
2018-04-07T16:19:22.382Z,4.60
2018-04-07T16:21:51.276Z,4.10
2018-04-07T16:24:20.164Z,4.27
2018-04-07T16:26:49.088Z,4.17
2018-04-07T16:29:17.940Z,4.53
2018-04-07T16:31:46.861Z,4.57
2018-04-07T16:34:15.781Z,4.50
2018-04-07T16:36:44.669Z,4.30
2018-04-07T16:39:13.930Z,4.13
2018-04-07T16:41:42.875Z,4.20
2018-04-07T16:44:11.746Z,4.40
2018-04-07T16:46:40.710Z,3.73
2018-04-07T16:49:09.611Z,3.80
2018-04-07T16:51:38.520Z,4.07
2018-04-07T16:54:07.355Z,4.73
2018-04-07T16:56:36.160Z,4.20
2018-04-07T16:59:05.110Z,3.93
2018-04-07T17:01:34.046Z,3.97
2018-04-07T17:04:02.966Z,3.80
2018-04-07T17:06:31.932Z,3.97
2018-04-07T17:09:00.786Z,3.67
2018-04-07T17:11:29.673Z,3.67
2018-04-07T17:13:58.652Z,2.80
2018-04-07T17:16:27.599Z,3.43
2018-04-07T17:18:56.505Z,3.33
2018-04-07T17:21:25.438Z,3.53
2018-04-07T17:23:54.372Z,3.60
2018-04-07T17:26:23.352Z,3.80
2018-04-07T17:28:52.272Z,4.13
2018-04-07T17:31:21.212Z,3.17
2018-04-07T17:33:50.204Z,3.47
2018-04-07T17:36:19.116Z,3.83
2018-04-07T17:38:48.005Z,3.80
2018-04-07T17:41:16.918Z,3.60
2018-04-07T17:43:45.846Z,3.33
2018-04-07T17:46:14.825Z,3.67
2018-04-07T17:48:43.749Z,3.57
2018-04-07T17:51:12.752Z,3.43
2018-04-07T17:53:41.650Z,3.10
2018-04-07T17:56:10.562Z,3.23
2018-04-07T17:58:39.440Z,3.20
2018-04-07T18:01:08.348Z,3.53
2018-04-07T18:03:37.280Z,3.07
2018-04-07T18:06:06.148Z,3.07
2018-04-07T18:08:35.083Z,2.90
2018-04-07T18:11:04.040Z,3.50
2018-04-07T18:13:32.908Z,3.23
2018-04-07T18:16:01.864Z,3.17
2018-04-07T18:18:30.802Z,3.17
2018-04-07T18:20:59.728Z,3.17
2018-04-07T18:23:28.581Z,3.23
2018-04-07T18:25:57.459Z,3.27
2018-04-07T18:28:26.309Z,3.23
2018-04-07T18:30:55.223Z,3.50
2018-04-07T18:33:24.119Z,3.63
2018-04-07T18:35:53.699Z,3.13
2018-04-07T18:38:22.663Z,2.97
2018-04-07T18:40:53.484Z,3.00
2018-04-07T18:43:22.359Z,3.37
2018-04-07T18:45:51.413Z,3.37
2018-04-07T18:48:20.296Z,4.83
2018-04-07T18:50:49.222Z,4.90
2018-04-07T18:53:18.099Z,4.33
2018-04-07T18:55:47.085Z,3.43
2018-04-07T18:58:16.127Z,3.80
2018-04-07T19:00:45.040Z,3.83
2018-04-07T19:03:13.940Z,3.50
2018-04-07T19:05:49.164Z,3.63
2018-04-07T19:08:17.998Z,3.50
2018-04-07T19:10:46.816Z,3.60
2018-04-07T19:13:15.765Z,3.13
2018-04-07T19:15:44.606Z,3.83
2018-04-07T19:18:13.483Z,3.17
2018-04-07T19:20:42.348Z,3.70
2018-04-07T19:23:11.819Z,3.47
2018-04-07T19:25:40.773Z,2.83
2018-04-07T19:28:09.703Z,3.00
2018-04-07T19:30:39.271Z,3.17
2018-04-07T19:33:08.276Z,2.83
2018-04-07T19:35:37.199Z,3.10
2018-04-07T19:38:06.137Z,2.67
2018-04-07T19:40:35.041Z,2.63
2018-04-07T19:43:04.092Z,2.50
2018-04-07T19:45:32.995Z,2.63
2018-04-07T19:48:01.901Z,2.97
2018-04-07T19:50:30.812Z,2.63
2018-04-07T19:52:59.823Z,2.33
2018-04-07T19:55:28.757Z,2.53
2018-04-07T19:57:57.640Z,3.00
2018-04-07T20:00:26.579Z,2.23
2018-04-07T20:02:55.706Z,2.83
2018-04-07T20:05:24.713Z,2.80
2018-04-07T20:07:53.671Z,2.60
2018-04-07T20:10:22.551Z,2.40
2018-04-07T20:12:51.426Z,3.23
2018-04-07T20:15:20.507Z,2.83
2018-04-07T20:17:49.615Z,3.03
2018-04-07T20:20:18.539Z,3.40
2018-04-07T20:22:47.527Z,3.70
2018-04-07T20:25:16.891Z,2.97
2018-04-07T20:27:45.842Z,2.90
2018-04-07T20:30:14.916Z,3.00
2018-04-07T20:32:43.852Z,3.47
2018-04-07T20:35:12.913Z,3.03
2018-04-07T20:37:41.793Z,3.60
2018-04-07T20:40:10.694Z,3.30
2018-04-07T20:42:39.641Z,3.23
2018-04-07T20:45:08.563Z,3.07
2018-04-07T20:47:37.527Z,3.50
2018-04-07T20:50:06.468Z,3.50
2018-04-07T20:52:35.402Z,3.37
2018-04-07T20:55:04.376Z,3.27
2018-04-07T20:57:33.230Z,3.17
2018-04-07T21:00:02.142Z,3.40
2018-04-07T21:02:31.162Z,3.30
2018-04-07T21:05:00.075Z,3.33
2018-04-07T21:07:29.062Z,3.90
2018-04-07T21:09:57.955Z,3.70
2018-04-07T21:12:26.933Z,3.40
2018-04-07T21:14:55.880Z,3.13
2018-04-07T21:17:25.506Z,3.57
2018-04-07T21:19:54.448Z,3.60
2018-04-07T21:22:23.383Z,3.50
2018-04-07T21:24:52.461Z,3.27
2018-04-07T21:27:21.416Z,3.67
2018-04-07T21:29:50.484Z,3.37
2018-04-07T21:32:19.662Z,3.63
2018-04-07T21:34:48.577Z,3.23
2018-04-07T21:37:17.666Z,3.30
2018-04-07T21:39:46.733Z,3.63
2018-04-07T21:42:16.049Z,3.33
2018-04-07T21:44:45.130Z,3.20
2018-04-07T21:47:14.155Z,3.57
2018-04-07T21:49:43.142Z,3.50
2018-04-07T21:52:12.222Z,3.57
2018-04-07T21:54:41.286Z,3.10
2018-04-07T21:57:10.256Z,3.60
2018-04-07T21:59:39.334Z,3.20
2018-04-07T22:02:08.432Z,3.20
2018-04-07T22:04:37.597Z,2.70
2018-04-07T22:07:06.811Z,2.70
2018-04-07T22:09:35.778Z,2.87
2018-04-07T22:12:05.450Z,2.50
2018-04-07T22:14:34.798Z,2.90
2018-04-07T22:17:03.768Z,3.07
2018-04-07T22:19:32.723Z,2.73
2018-04-07T22:22:01.682Z,3.07
2018-04-07T22:24:30.822Z,2.97
2018-04-07T22:26:59.872Z,3.30
2018-04-07T22:29:28.857Z,2.90
2018-04-07T22:31:57.744Z,2.97
2018-04-07T22:34:26.772Z,2.93
2018-04-07T22:36:56.038Z,2.70
2018-04-07T22:39:26.868Z,2.80
2018-04-07T22:44:35.883Z,2.17
2018-04-07T22:47:07.880Z,2.70
2018-04-07T22:49:39.173Z,2.50
2018-04-07T22:52:11.562Z,2.40
2018-04-07T22:54:41.936Z,2.80
2018-04-07T22:57:11.283Z,2.73
2018-04-07T22:59:43.286Z,2.20
2018-04-07T23:02:13.394Z,2.20
2018-04-07T23:04:42.429Z,2.90
2018-04-07T23:07:11.479Z,2.50
2018-04-07T23:09:40.557Z,2.30
2018-04-07T23:12:09.574Z,2.50
2018-04-07T23:14:38.675Z,2.10
2018-04-07T23:17:07.661Z,2.40
2018-04-07T23:19:36.514Z,2.43
2018-04-07T23:22:05.402Z,2.37
2018-04-07T23:24:34.219Z,1.97
2018-04-07T23:27:03.007Z,2.30
2018-04-07T23:29:31.786Z,2.00
2018-04-07T23:32:00.698Z,2.20
2018-04-07T23:34:30.590Z,2.23
2018-04-07T23:36:59.396Z,2.10
2018-04-07T23:39:28.174Z,2.33
2018-04-07T23:41:57.320Z,2.10
2018-04-07T23:44:26.196Z,2.50
2018-04-07T23:46:54.990Z,2.17
2018-04-07T23:49:24.092Z,2.40
2018-04-07T23:51:52.894Z,2.03
2018-04-07T23:54:21.677Z,2.07
2018-04-07T23:56:50.561Z,2.13
2018-04-07T23:59:19.370Z,1.90
